sensor_id;sensor_type;location;lat;lon;timestamp;pressure;altitude;pressure_sealevel;temperature;humidity
20624;BME280;10471;42.736;23.346;2022-12-10T00:02:07;94907.44;;;9.32;100.00
20624;BME280;10471;42.736;23.346;2022-12-10T00:04:33;94921.59;;;9.36;100.00
20624;BME280;10471;42.736;23.346;2022-12-10T00:06:58;94906.09;;;9.35;100.00
20624;BME280;10471;42.736;23.346;2022-12-10T00:09:23;94895.34;;;9.31;100.00
20624;BME280;10471;42.736;23.346;2022-12-10T00:11:49;94903.75;;;9.33;100.00
20624;BME280;10471;42.736;23.346;2022-12-10T00:14:15;94917.97;;;9.32;100.00
20624;BME280;10471;42.736;23.346;2022-12-10T00:16:41;94922.69;;;9.35;100.00
20624;BME280;10471;42.736;23.346;2022-12-10T00:19:07;94918.47;;;9.34;100.00
20624;BME280;10471;42.736;23.346;2022-12-10T00:21:34;94916.41;;;9.31;100.00
20624;BME280;10471;42.736;23.346;2022-12-10T00:24:01;94921.16;;;9.29;100.00
20624;BME280;10471;42.736;23.346;2022-12-10T00:26:29;94925.66;;;9.24;100.00
20624;BME280;10471;42.736;23.346;2022-12-10T00:28:55;94915.72;;;9.21;100.00
20624;BME280;10471;42.736;23.346;2022-12-10T00:31:24;94914.91;;;9.20;100.00
20624;BME280;10471;42.736;23.346;2022-12-10T00:33:52;94918.06;;;9.22;100.00
20624;BME280;10471;42.736;23.346;2022-12-10T00:36:24;94909.91;;;9.24;100.00
20624;BME280;10471;42.736;23.346;2022-12-10T00:38:50;94918.31;;;9.26;100.00
20624;BME280;10471;42.736;23.346;2022-12-10T00:41:16;94927.34;;;9.15;100.00
20624;BME280;10471;42.736;23.346;2022-12-10T00:43:43;94946.47;;;9.20;100.00
20624;BME280;10471;42.736;23.346;2022-12-10T00:46:09;94914.16;;;9.20;100.00
20624;BME280;10471;42.736;23.346;2022-12-10T00:48:35;94919.06;;;9.26;100.00
20624;BME280;10471;42.736;23.346;2022-12-10T00:51:22;94919.34;;;9.25;100.00
20624;BME280;10471;42.736;23.346;2022-12-10T00:53:49;94910.13;;;9.27;100.00
20624;BME280;10471;42.736;23.346;2022-12-10T00:56:17;94907.00;;;9.25;100.00
20624;BME280;10471;42.736;23.346;2022-12-10T00:58:43;94916.19;;;9.28;100.00
20624;BME280;10471;42.736;23.346;2022-12-10T01:01:12;94916.41;;;9.31;100.00
20624;BME280;10471;42.736;23.346;2022-12-10T01:03:40;94919.53;;;9.33;100.00
20624;BME280;10471;42.736;23.346;2022-12-10T01:06:12;94921.34;;;9.38;100.00
20624;BME280;10471;42.736;23.346;2022-12-10T01:08:38;94917.88;;;9.42;100.00
20624;BME280;10471;42.736;23.346;2022-12-10T01:11:03;94923.00;;;9.52;100.00
20624;BME280;10471;42.736;23.346;2022-12-10T01:13:29;94911.38;;;9.58;100.00
20624;BME280;10471;42.736;23.346;2022-12-10T01:15:54;94913.47;;;9.61;100.00
20624;BME280;10471;42.736;23.346;2022-12-10T01:18:19;94896.34;;;9.64;100.00
20624;BME280;10471;42.736;23.346;2022-12-10T01:20:45;94898.19;;;9.63;100.00
20624;BME280;10471;42.736;23.346;2022-12-10T01:23:10;94893.59;;;9.74;100.00
20624;BME280;10471;42.736;23.346;2022-12-10T01:25:35;94889.09;;;9.74;100.00
20624;BME280;10471;42.736;23.346;2022-12-10T01:28:01;94890.09;;;9.78;100.00
20624;BME280;10471;42.736;23.346;2022-12-10T01:30:26;94899.28;;;9.80;100.00
20624;BME280;10471;42.736;23.346;2022-12-10T01:32:52;94909.56;;;9.82;100.00
20624;BME280;10471;42.736;23.346;2022-12-10T01:35:17;94889.50;;;9.86;100.00
20624;BME280;10471;42.736;23.346;2022-12-10T01:37:42;94898.97;;;9.87;100.00
20624;BME280;10471;42.736;23.346;2022-12-10T01:40:08;94896.09;;;9.83;100.00
20624;BME280;10471;42.736;23.346;2022-12-10T01:42:34;94892.34;;;9.89;100.00
20624;BME280;10471;42.736;23.346;2022-12-10T01:45:06;94894.19;;;9.89;100.00
20624;BME280;10471;42.736;23.346;2022-12-10T01:47:33;94913.06;;;9.96;100.00
20624;BME280;10471;42.736;23.346;2022-12-10T01:49:59;94892.00;;;9.96;100.00
20624;BME280;10471;42.736;23.346;2022-12-10T01:52:26;94888.81;;;9.99;100.00
20624;BME280;10471;42.736;23.346;2022-12-10T01:54:52;94895.19;;;9.98;100.00
20624;BME280;10471;42.736;23.346;2022-12-10T01:57:25;94889.78;;;9.84;100.00
20624;BME280;10471;42.736;23.346;2022-12-10T01:59:54;94895.94;;;9.75;100.00
20624;BME280;10471;42.736;23.346;2022-12-10T02:05:07;94896.06;;;9.65;100.00
20624;BME280;10471;42.736;23.346;2022-12-10T02:16:13;94892.78;;;9.50;100.00
20624;BME280;10471;42.736;23.346;2022-12-10T02:19:03;94872.84;;;9.49;100.00
20624;BME280;10471;42.736;23.346;2022-12-10T02:21:37;94871.75;;;9.50;100.00
20624;BME280;10471;42.736;23.346;2022-12-10T02:24:09;94881.06;;;9.42;100.00
20624;BME280;10471;42.736;23.346;2022-12-10T02:29:24;94870.31;;;9.39;100.00
20624;BME280;10471;42.736;23.346;2022-12-10T02:32:04;94847.03;;;9.51;100.00
20624;BME280;10471;42.736;23.346;2022-12-10T02:34:37;94845.13;;;9.56;100.00
20624;BME280;10471;42.736;23.346;2022-12-10T02:37:07;94846.38;;;9.64;100.00
20624;BME280;10471;42.736;23.346;2022-12-10T02:39:40;94844.97;;;9.71;100.00
20624;BME280;10471;42.736;23.346;2022-12-10T02:42:08;94854.81;;;9.61;100.00
20624;BME280;10471;42.736;23.346;2022-12-10T02:44:36;94851.63;;;9.64;100.00
20624;BME280;10471;42.736;23.346;2022-12-10T02:47:03;94849.94;;;9.73;100.00
20624;BME280;10471;42.736;23.346;2022-12-10T02:49:30;94849.56;;;9.79;100.00
20624;BME280;10471;42.736;23.346;2022-12-10T02:51:56;94839.06;;;9.79;100.00
20624;BME280;10471;42.736;23.346;2022-12-10T02:54:40;94842.75;;;9.78;100.00
20624;BME280;10471;42.736;23.346;2022-12-10T03:00:19;94855.63;;;9.79;100.00
20624;BME280;10471;42.736;23.346;2022-12-10T03:05:40;94844.03;;;9.80;100.00
20624;BME280;10471;42.736;23.346;2022-12-10T03:11:15;94840.63;;;9.80;100.00
20624;BME280;10471;42.736;23.346;2022-12-10T03:16:23;94833.03;;;9.78;100.00
20624;BME280;10471;42.736;23.346;2022-12-10T03:18:52;94852.13;;;9.84;100.00
20624;BME280;10471;42.736;23.346;2022-12-10T03:21:20;94838.16;;;9.88;100.00
20624;BME280;10471;42.736;23.346;2022-12-10T03:23:47;94831.81;;;9.89;100.00
20624;BME280;10471;42.736;23.346;2022-12-10T03:26:14;94840.63;;;9.80;100.00
20624;BME280;10471;42.736;23.346;2022-12-10T03:28:46;94838.50;;;9.82;100.00
20624;BME280;10471;42.736;23.346;2022-12-10T03:31:14;94833.72;;;9.84;100.00
20624;BME280;10471;42.736;23.346;2022-12-10T03:33:40;94836.34;;;9.84;100.00
20624;BME280;10471;42.736;23.346;2022-12-10T03:36:07;94840.63;;;9.80;100.00
20624;BME280;10471;42.736;23.346;2022-12-10T03:38:33;94834.38;;;9.76;100.00
20624;BME280;10471;42.736;23.346;2022-12-10T03:40:59;94838.66;;;9.67;100.00
20624;BME280;10471;42.736;23.346;2022-12-10T03:43:25;94830.59;;;9.64;100.00
20624;BME280;10471;42.736;23.346;2022-12-10T03:45:50;94818.97;;;9.65;100.00
20624;BME280;10471;42.736;23.346;2022-12-10T03:48:15;94825.81;;;9.66;100.00
20624;BME280;10471;42.736;23.346;2022-12-10T03:50:41;94820.25;;;9.67;100.00
20624;BME280;10471;42.736;23.346;2022-12-10T03:53:06;94822.41;;;9.65;100.00
20624;BME280;10471;42.736;23.346;2022-12-10T03:55:32;94825.50;;;9.67;100.00
20624;BME280;10471;42.736;23.346;2022-12-10T03:57:58;94827.09;;;9.68;100.00
20624;BME280;10471;42.736;23.346;2022-12-10T04:00:23;94818.13;;;9.69;100.00
20624;BME280;10471;42.736;23.346;2022-12-10T04:02:49;94810.03;;;9.66;100.00
20624;BME280;10471;42.736;23.346;2022-12-10T04:05:14;94820.59;;;9.61;100.00
20624;BME280;10471;42.736;23.346;2022-12-10T04:07:39;94814.81;;;9.64;100.00
20624;BME280;10471;42.736;23.346;2022-12-10T04:10:05;94816.34;;;9.65;100.00
20624;BME280;10471;42.736;23.346;2022-12-10T04:12:30;94818.72;;;9.66;100.00
20624;BME280;10471;42.736;23.346;2022-12-10T04:14:56;94820.59;;;9.61;100.00
20624;BME280;10471;42.736;23.346;2022-12-10T04:17:40;94814.81;;;9.64;100.00
20624;BME280;10471;42.736;23.346;2022-12-10T04:20:05;94822.19;;;9.62;100.00
20624;BME280;10471;42.736;23.346;2022-12-10T04:22:51;94828.72;;;9.64;100.00
20624;BME280;10471;42.736;23.346;2022-12-10T04:25:35;94830.22;;;9.70;100.00
20624;BME280;10471;42.736;23.346;2022-12-10T04:28:18;94822.34;;;9.70;100.00
20624;BME280;10471;42.736;23.346;2022-12-10T04:30:44;94826.53;;;9.71;100.00
20624;BME280;10471;42.736;23.346;2022-12-10T04:33:09;94821.75;;;9.73;100.00
20624;BME280;10471;42.736;23.346;2022-12-10T04:35:34;94833.91;;;9.69;100.00
20624;BME280;10471;42.736;23.346;2022-12-10T04:38:00;94836.56;;;9.69;100.00
20624;BME280;10471;42.736;23.346;2022-12-10T04:40:25;94831.13;;;9.61;100.00
20624;BME280;10471;42.736;23.346;2022-12-10T04:42:51;94829.38;;;9.56;100.00
20624;BME280;10471;42.736;23.346;2022-12-10T04:45:16;94823.53;;;9.59;100.00
20624;BME280;10471;42.736;23.346;2022-12-10T04:47:41;94807.63;;;9.69;100.00
20624;BME280;10471;42.736;23.346;2022-12-10T04:50:07;94800.22;;;9.71;100.00
20624;BME280;10471;42.736;23.346;2022-12-10T04:52:32;94796.19;;;9.78;100.00
20624;BME280;10471;42.736;23.346;2022-12-10T04:54:58;94816.66;;;9.81;100.00
20624;BME280;10471;42.736;23.346;2022-12-10T04:57:23;94813.72;;;9.83;100.00
20624;BME280;10471;42.736;23.346;2022-12-10T04:59:48;94816.88;;;9.85;100.00
20624;BME280;10471;42.736;23.346;2022-12-10T05:02:14;94824.97;;;9.70;100.00
20624;BME280;10471;42.736;23.346;2022-12-10T05:04:39;94828.16;;;9.67;100.00
20624;BME280;10471;42.736;23.346;2022-12-10T05:07:05;94815.09;;;9.80;100.00
20624;BME280;10471;42.736;23.346;2022-12-10T05:09:30;94809.91;;;9.94;100.00
20624;BME280;10471;42.736;23.346;2022-12-10T05:11:56;94811.13;;;10.01;100.00
20624;BME280;10471;42.736;23.346;2022-12-10T05:14:21;94811.34;;;10.05;100.00
20624;BME280;10471;42.736;23.346;2022-12-10T05:16:49;94814.28;;;10.03;100.00
20624;BME280;10471;42.736;23.346;2022-12-10T05:19:15;94808.72;;;10.05;100.00
20624;BME280;10471;42.736;23.346;2022-12-10T05:21:41;94815.63;;;10.01;100.00
20624;BME280;10471;42.736;23.346;2022-12-10T05:24:25;94813.13;;;9.91;100.00
20624;BME280;10471;42.736;23.346;2022-12-10T05:26:50;94806.75;;;9.97;100.00
20624;BME280;10471;42.736;23.346;2022-12-10T05:29:16;94800.34;;;10.03;100.00
20624;BME280;10471;42.736;23.346;2022-12-10T05:31:42;94796.63;;;10.04;100.00
20624;BME280;10471;42.736;23.346;2022-12-10T05:34:10;94796.06;;;10.07;100.00
20624;BME280;10471;42.736;23.346;2022-12-10T05:36:36;94797.91;;;10.06;100.00
20624;BME280;10471;42.736;23.346;2022-12-10T05:39:02;94794.06;;;9.99;100.00
20624;BME280;10471;42.736;23.346;2022-12-10T05:41:30;94793.81;;;10.00;100.00
20624;BME280;10471;42.736;23.346;2022-12-10T05:43:57;94802.19;;;10.02;100.00
20624;BME280;10471;42.736;23.346;2022-12-10T05:46:25;94802.41;;;10.06;100.00
20624;BME280;10471;42.736;23.346;2022-12-10T05:48:51;94805.09;;;10.01;100.00
20624;BME280;10471;42.736;23.346;2022-12-10T05:51:19;94807.13;;;9.85;100.00
20624;BME280;10471;42.736;23.346;2022-12-10T05:53:46;94820.94;;;9.77;100.00
20624;BME280;10471;42.736;23.346;2022-12-10T05:56:17;94831.22;;;9.74;100.00
20624;BME280;10471;42.736;23.346;2022-12-10T05:58:45;94818.88;;;9.75;100.00
20624;BME280;10471;42.736;23.346;2022-12-10T06:01:14;94819.63;;;9.75;100.00
20624;BME280;10471;42.736;23.346;2022-12-10T06:03:40;94824.63;;;9.77;100.00
20624;BME280;10471;42.736;23.346;2022-12-10T06:06:06;94824.31;;;9.78;100.00
20624;BME280;10471;42.736;23.346;2022-12-10T06:08:32;94812.19;;;9.82;100.00
20624;BME280;10471;42.736;23.346;2022-12-10T06:11:06;94811.03;;;9.88;100.00
20624;BME280;10471;42.736;23.346;2022-12-10T06:13:32;94827.84;;;9.92;100.00
20624;BME280;10471;42.736;23.346;2022-12-10T06:15:57;94823.03;;;9.99;100.00
20624;BME280;10471;42.736;23.346;2022-12-10T06:18:23;94824.59;;;10.00;100.00
20624;BME280;10471;42.736;23.346;2022-12-10T06:20:49;94825.03;;;10.07;100.00
20624;BME280;10471;42.736;23.346;2022-12-10T06:23:14;94821.47;;;9.98;100.00
20624;BME280;10471;42.736;23.346;2022-12-10T06:25:40;94816.72;;;9.95;100.00
20624;BME280;10471;42.736;23.346;2022-12-10T06:28:06;94817.69;;;10.04;100.00
20624;BME280;10471;42.736;23.346;2022-12-10T06:30:32;94816.84;;;10.08;100.00
20624;BME280;10471;42.736;23.346;2022-12-10T06:32:57;94809.63;;;10.14;100.00
20624;BME280;10471;42.736;23.346;2022-12-10T06:35:22;94808.31;;;10.16;100.00
20624;BME280;10471;42.736;23.346;2022-12-10T06:37:49;94810.66;;;10.18;100.00
20624;BME280;10471;42.736;23.346;2022-12-10T06:40:15;94803.22;;;10.20;100.00
20624;BME280;10471;42.736;23.346;2022-12-10T06:42:40;94810.06;;;10.21;100.00
20624;BME280;10471;42.736;23.346;2022-12-10T06:45:06;94821.59;;;10.25;100.00
20624;BME280;10471;42.736;23.346;2022-12-10T06:47:31;94818.31;;;10.33;100.00
20624;BME280;10471;42.736;23.346;2022-12-10T06:49:57;94819.22;;;10.42;100.00
20624;BME280;10471;42.736;23.346;2022-12-10T06:52:22;94815.97;;;10.49;100.00
20624;BME280;10471;42.736;23.346;2022-12-10T06:54:48;94825.06;;;10.57;100.00
20624;BME280;10471;42.736;23.346;2022-12-10T06:57:13;94823.69;;;10.59;100.00
20624;BME280;10471;42.736;23.346;2022-12-10T06:59:38;94836.28;;;10.62;100.00
20624;BME280;10471;42.736;23.346;2022-12-10T07:02:04;94828.59;;;10.66;100.00
20624;BME280;10471;42.736;23.346;2022-12-10T07:04:30;94830.06;;;10.72;100.00
20624;BME280;10471;42.736;23.346;2022-12-10T07:06:55;94824.13;;;10.80;100.00
20624;BME280;10471;42.736;23.346;2022-12-10T07:09:21;94839.59;;;10.86;100.00
20624;BME280;10471;42.736;23.346;2022-12-10T07:11:46;94838.41;;;10.92;100.00
20624;BME280;10471;42.736;23.346;2022-12-10T07:14:16;94845.03;;;10.90;100.00
20624;BME280;10471;42.736;23.346;2022-12-10T07:16:42;94846.81;;;10.94;100.00
20624;BME280;10471;42.736;23.346;2022-12-10T07:19:09;94835.69;;;10.97;100.00
20624;BME280;10471;42.736;23.346;2022-12-10T07:21:36;94822.41;;;11.02;100.00
20624;BME280;10471;42.736;23.346;2022-12-10T07:24:09;94816.19;;;11.11;100.00
20624;BME280;10471;42.736;23.346;2022-12-10T07:26:37;94803.63;;;11.22;100.00
20624;BME280;10471;42.736;23.346;2022-12-10T07:29:03;94794.50;;;11.28;100.00
20624;BME280;10471;42.736;23.346;2022-12-10T07:31:29;94809.16;;;11.34;100.00
20624;BME280;10471;42.736;23.346;2022-12-10T07:33:57;94801.94;;;11.39;100.00
20624;BME280;10471;42.736;23.346;2022-12-10T07:36:23;94815.81;;;11.45;100.00
20624;BME280;10471;42.736;23.346;2022-12-10T07:38:50;94812.69;;;11.43;100.00
20624;BME280;10471;42.736;23.346;2022-12-10T07:41:16;94810.53;;;11.45;100.00
20624;BME280;10471;42.736;23.346;2022-12-10T07:43:43;94799.63;;;11.51;100.00
20624;BME280;10471;42.736;23.346;2022-12-10T07:46:11;94790.25;;;11.59;100.00
20624;BME280;10471;42.736;23.346;2022-12-10T07:48:38;94808.22;;;11.70;100.00
20624;BME280;10471;42.736;23.346;2022-12-10T07:51:04;94797.44;;;11.80;100.00
20624;BME280;10471;42.736;23.346;2022-12-10T07:53:30;94799.22;;;11.84;100.00
20624;BME280;10471;42.736;23.346;2022-12-10T07:55:55;94803.28;;;11.90;100.00
20624;BME280;10471;42.736;23.346;2022-12-10T07:58:20;94799.06;;;12.03;100.00
20624;BME280;10471;42.736;23.346;2022-12-10T08:00:46;94788.84;;;12.10;100.00
20624;BME280;10471;42.736;23.346;2022-12-10T08:03:11;94786.78;;;12.20;100.00
20624;BME280;10471;42.736;23.346;2022-12-10T08:05:37;94788.88;;;12.32;100.00
20624;BME280;10471;42.736;23.346;2022-12-10T08:08:02;94796.28;;;12.43;100.00
20624;BME280;10471;42.736;23.346;2022-12-10T08:10:28;94792.25;;;12.45;100.00
20624;BME280;10471;42.736;23.346;2022-12-10T08:12:53;94793.13;;;12.63;100.00
20624;BME280;10471;42.736;23.346;2022-12-10T08:15:19;94802.69;;;12.72;100.00
20624;BME280;10471;42.736;23.346;2022-12-10T08:17:44;94788.47;;;12.82;100.00
20624;BME280;10471;42.736;23.346;2022-12-10T08:20:10;94802.53;;;12.91;100.00
20624;BME280;10471;42.736;23.346;2022-12-10T08:22:35;94803.28;;;12.91;100.00
20624;BME280;10471;42.736;23.346;2022-12-10T08:25:01;94801.31;;;12.97;100.00
20624;BME280;10471;42.736;23.346;2022-12-10T08:27:27;94803.84;;;13.02;100.00
20624;BME280;10471;42.736;23.346;2022-12-10T08:29:53;94806.63;;;12.97;100.00
20624;BME280;10471;42.736;23.346;2022-12-10T08:32:18;94799.16;;;12.99;100.00
20624;BME280;10471;42.736;23.346;2022-12-10T08:34:44;94799.03;;;13.04;100.00
20624;BME280;10471;42.736;23.346;2022-12-10T08:37:09;94794.19;;;13.06;100.00
20624;BME280;10471;42.736;23.346;2022-12-10T08:39:35;94786.94;;;13.11;100.00
20624;BME280;10471;42.736;23.346;2022-12-10T08:42:00;94790.53;;;13.15;100.00
20624;BME280;10471;42.736;23.346;2022-12-10T08:44:26;94787.06;;;13.14;100.00
20624;BME280;10471;42.736;23.346;2022-12-10T08:46:51;94778.00;;;12.99;100.00
20624;BME280;10471;42.736;23.346;2022-12-10T08:49:16;94783.63;;;13.06;100.00
20624;BME280;10471;42.736;23.346;2022-12-10T08:51:42;94788.06;;;13.18;100.00
20624;BME280;10471;42.736;23.346;2022-12-10T08:54:07;94779.59;;;13.08;100.00
20624;BME280;10471;42.736;23.346;2022-12-10T08:56:33;94774.59;;;13.07;100.00
20624;BME280;10471;42.736;23.346;2022-12-10T08:58:58;94759.84;;;13.14;100.00
20624;BME280;10471;42.736;23.346;2022-12-10T09:01:24;94764.69;;;13.20;100.00
20624;BME280;10471;42.736;23.346;2022-12-10T09:03:49;94758.66;;;13.28;100.00
20624;BME280;10471;42.736;23.346;2022-12-10T09:06:17;94750.59;;;13.33;100.00
20624;BME280;10471;42.736;23.346;2022-12-10T09:08:44;94741.75;;;13.46;100.00
20624;BME280;10471;42.736;23.346;2022-12-10T09:13:40;94745.84;;;13.69;100.00
20624;BME280;10471;42.736;23.346;2022-12-10T09:16:05;94750.09;;;13.87;100.00
20624;BME280;10471;42.736;23.346;2022-12-10T09:18:31;94751.19;;;14.03;100.00
20624;BME280;10471;42.736;23.346;2022-12-10T09:20:56;94749.53;;;14.15;100.00
20624;BME280;10471;42.736;23.346;2022-12-10T09:23:22;94753.09;;;14.28;100.00
20624;BME280;10471;42.736;23.346;2022-12-10T09:25:48;94742.78;;;14.43;100.00
20624;BME280;10471;42.736;23.346;2022-12-10T09:28:13;94749.47;;;14.57;100.00
20624;BME280;10471;42.736;23.346;2022-12-10T09:30:39;94739.47;;;14.71;100.00
20624;BME280;10471;42.736;23.346;2022-12-10T09:33:04;94733.22;;;14.76;100.00
20624;BME280;10471;42.736;23.346;2022-12-10T09:35:29;94741.78;;;14.81;100.00
20624;BME280;10471;42.736;23.346;2022-12-10T09:37:55;94739.41;;;14.88;100.00
20624;BME280;10471;42.736;23.346;2022-12-10T09:40:49;94728.00;;;14.96;100.00
20624;BME280;10471;42.736;23.346;2022-12-10T09:53:46;94696.84;;;15.22;100.00
20624;BME280;10471;42.736;23.346;2022-12-10T09:56:26;94689.31;;;15.32;100.00
20624;BME280;10471;42.736;23.346;2022-12-10T09:58:52;94678.47;;;15.46;100.00
20624;BME280;10471;42.736;23.346;2022-12-10T10:01:22;94673.72;;;15.51;100.00
20624;BME280;10471;42.736;23.346;2022-12-10T10:03:49;94684.50;;;15.55;100.00
20624;BME280;10471;42.736;23.346;2022-12-10T10:06:16;94679.38;;;15.50;100.00
20624;BME280;10471;42.736;23.346;2022-12-10T10:08:55;94677.03;;;15.69;100.00
20624;BME280;10471;42.736;23.346;2022-12-10T10:11:25;94677.31;;;15.75;100.00
20624;BME280;10471;42.736;23.346;2022-12-10T10:14:15;94683.47;;;15.88;100.00
20624;BME280;10471;42.736;23.346;2022-12-10T10:16:44;94678.16;;;16.08;100.00
20624;BME280;10471;42.736;23.346;2022-12-10T10:19:17;94682.63;;;16.16;100.00
20624;BME280;10471;42.736;23.346;2022-12-10T10:21:50;94669.97;;;16.13;100.00
20624;BME280;10471;42.736;23.346;2022-12-10T10:24:19;94673.75;;;16.12;100.00
20624;BME280;10471;42.736;23.346;2022-12-10T10:26:46;94674.84;;;16.11;100.00
20624;BME280;10471;42.736;23.346;2022-12-10T10:29:14;94676.00;;;16.22;100.00
20624;BME280;10471;42.736;23.346;2022-12-10T10:31:41;94655.22;;;16.36;100.00
20624;BME280;10471;42.736;23.346;2022-12-10T10:34:19;94644.41;;;16.41;100.00
20624;BME280;10471;42.736;23.346;2022-12-10T10:36:46;94624.25;;;16.52;100.00
20624;BME280;10471;42.736;23.346;2022-12-10T10:41:50;94622.81;;;16.54;100.00
20624;BME280;10471;42.736;23.346;2022-12-10T10:44:19;94622.50;;;16.56;100.00
20624;BME280;10471;42.736;23.346;2022-12-10T10:46:48;94623.44;;;16.40;100.00
20624;BME280;10471;42.736;23.346;2022-12-10T10:49:17;94626.25;;;16.55;100.00
20624;BME280;10471;42.736;23.346;2022-12-10T10:51:44;94635.34;;;16.54;100.00
20624;BME280;10471;42.736;23.346;2022-12-10T10:54:33;94635.59;;;16.61;100.00
20624;BME280;10471;42.736;23.346;2022-12-10T10:57:03;94644.91;;;16.67;100.00
20624;BME280;10471;42.736;23.346;2022-12-10T10:59:32;94640.69;;;16.66;100.00
20624;BME280;10471;42.736;23.346;2022-12-10T11:02:04;94635.16;;;16.71;100.00
20624;BME280;10471;42.736;23.346;2022-12-10T11:04:45;94618.09;;;16.84;100.00
20624;BME280;10471;42.736;23.346;2022-12-10T11:09:57;94611.00;;;16.88;100.00
20624;BME280;10471;42.736;23.346;2022-12-10T11:14:54;94599.03;;;16.82;100.00
20624;BME280;10471;42.736;23.346;2022-12-10T11:17:22;94599.44;;;16.84;100.00
20624;BME280;10471;42.736;23.346;2022-12-10T11:19:58;94586.59;;;16.86;100.00
20624;BME280;10471;42.736;23.346;2022-12-10T11:22:30;94577.72;;;16.82;100.00
20624;BME280;10471;42.736;23.346;2022-12-10T11:24:57;94565.97;;;16.71;100.00
20624;BME280;10471;42.736;23.346;2022-12-10T11:30:30;94554.22;;;16.60;100.00
20624;BME280;10471;42.736;23.346;2022-12-10T11:33:14;94557.03;;;16.31;100.00
20624;BME280;10471;42.736;23.346;2022-12-10T11:44:14;94559.84;;;16.02;100.00
20624;BME280;10471;42.736;23.346;2022-12-10T11:47:01;94560.59;;;16.03;100.00
20624;BME280;10471;42.736;23.346;2022-12-10T11:52:41;94556.50;;;15.93;100.00
20624;BME280;10471;42.736;23.346;2022-12-10T12:00:03;94542.75;;;15.91;100.00
20624;BME280;10471;42.736;23.346;2022-12-10T12:05:40;94541.78;;;15.96;100.00
20624;BME280;10471;42.736;23.346;2022-12-10T12:08:29;94542.78;;;16.03;100.00
20624;BME280;10471;42.736;23.346;2022-12-10T12:11:24;94538.03;;;16.09;100.00
20624;BME280;10471;42.736;23.346;2022-12-10T12:14:32;94529.38;;;16.00;100.00
20624;BME280;10471;42.736;23.346;2022-12-10T12:17:16;94520.94;;;15.98;100.00
20624;BME280;10471;42.736;23.346;2022-12-10T12:19:49;94506.09;;;15.85;100.00
20624;BME280;10471;42.736;23.346;2022-12-10T12:22:27;94499.34;;;15.87;100.00
20624;BME280;10471;42.736;23.346;2022-12-10T12:25:06;94496.34;;;15.89;100.00
20624;BME280;10471;42.736;23.346;2022-12-10T12:27:48;94490.25;;;15.88;100.00
20624;BME280;10471;42.736;23.346;2022-12-10T12:30:18;94491.13;;;15.80;100.00
20624;BME280;10471;42.736;23.346;2022-12-10T12:40:51;94463.47;;;16.05;100.00
20624;BME280;10471;42.736;23.346;2022-12-10T12:43:25;94456.19;;;16.14;100.00
20624;BME280;10471;42.736;23.346;2022-12-10T12:45:54;94461.50;;;16.14;100.00
20624;BME280;10471;42.736;23.346;2022-12-10T12:51:23;94448.44;;;16.09;100.00
20624;BME280;10471;42.736;23.346;2022-12-10T12:53:51;94449.56;;;16.20;100.00
20624;BME280;10471;42.736;23.346;2022-12-10T12:56:48;94446.69;;;16.25;100.00
20624;BME280;10471;42.736;23.346;2022-12-10T13:01:54;94434.94;;;16.14;100.00
20624;BME280;10471;42.736;23.346;2022-12-10T13:04:23;94438.69;;;16.13;100.00
20624;BME280;10471;42.736;23.346;2022-12-10T13:07:53;94431.13;;;16.15;100.00
20624;BME280;10471;42.736;23.346;2022-12-10T13:12:44;94428.16;;;16.05;100.00
20624;BME280;10471;42.736;23.346;2022-12-10T13:20:35;94436.56;;;15.95;100.00
20624;BME280;10471;42.736;23.346;2022-12-10T13:28:29;94404.56;;;15.91;100.00
20624;BME280;10471;42.736;23.346;2022-12-10T13:44:59;94376.63;;;15.62;100.00
20624;BME280;10471;42.736;23.346;2022-12-10T13:53:32;94368.75;;;15.53;100.00
20624;BME280;10471;42.736;23.346;2022-12-10T14:01:41;94373.03;;;15.34;100.00
20624;BME280;10471;42.736;23.346;2022-12-10T14:06:38;94386.50;;;15.29;100.00
20624;BME280;10471;42.736;23.346;2022-12-10T14:11:59;94368.25;;;15.07;100.00
20624;BME280;10471;42.736;23.346;2022-12-10T14:14:31;94366.91;;;15.01;100.00
20624;BME280;10471;42.736;23.346;2022-12-10T14:17:04;94361.19;;;14.99;100.00
20624;BME280;10471;42.736;23.346;2022-12-10T14:19:30;94367.13;;;14.96;100.00
20624;BME280;10471;42.736;23.346;2022-12-10T14:21:56;94368.69;;;14.97;100.00
20624;BME280;10471;42.736;23.346;2022-12-10T14:24:31;94360.16;;;14.92;100.00
20624;BME280;10471;42.736;23.346;2022-12-10T14:27:11;94353.63;;;14.89;100.00
20624;BME280;10471;42.736;23.346;2022-12-10T14:29:36;94347.84;;;14.87;100.00
20624;BME280;10471;42.736;23.346;2022-12-10T14:32:02;94368.19;;;14.83;100.00
20624;BME280;10471;42.736;23.346;2022-12-10T14:34:28;94367.72;;;14.81;100.00
20624;BME280;10471;42.736;23.346;2022-12-10T14:36:56;94373.22;;;14.76;100.00
20624;BME280;10471;42.736;23.346;2022-12-10T14:39:27;94367.22;;;14.67;100.00
20624;BME280;10471;42.736;23.346;2022-12-10T14:41:57;94356.16;;;14.65;100.00
20624;BME280;10471;42.736;23.346;2022-12-10T14:44:24;94345.75;;;14.60;100.00
20624;BME280;10471;42.736;23.346;2022-12-10T14:46:50;94340.34;;;14.57;100.00
20624;BME280;10471;42.736;23.346;2022-12-10T14:49:20;94338.19;;;14.50;100.00
20624;BME280;10471;42.736;23.346;2022-12-10T14:51:45;94335.94;;;14.41;100.00
20624;BME280;10471;42.736;23.346;2022-12-10T14:54:30;94337.28;;;14.26;100.00
20624;BME280;10471;42.736;23.346;2022-12-10T14:57:01;94327.84;;;14.17;100.00
20624;BME280;10471;42.736;23.346;2022-12-10T14:59:56;94329.28;;;14.06;100.00
20624;BME280;10471;42.736;23.346;2022-12-10T15:02:30;94327.56;;;14.10;100.00